Time;durP1;ratioP1;P1;durP2;ratioP2;P2;SDS_P1;SDS_P2;PMS_P1;PMS_P2;Temp;Humidity;BMP_temperature;BMP_pressure;BME280_temperature;BME280_humidity;BME280_pressure;Samples;Min_cycle;Max_cycle;Signal;HPM_P1;HPM_P2
2021/11/08 00:01:06;;;;;;;0.98;0.60;;;;;;;10.75;100.00;100576.25;4986650;28;20038;-66
2021/11/08 00:03:35;;;;;;;1.70;0.73;;;;;;;10.68;100.00;100573.41;4988335;28;20088;-67
2021/11/08 00:06:04;;;;;;;3.97;0.95;;;;;;;10.72;100.00;100576.19;4973329;28;20096;-67
2021/11/08 00:08:30;;;;;;;4.25;0.77;;;;;;;10.74;100.00;100600.84;4992472;28;20049;-66
2021/11/08 00:10:56;;;;;;;2.17;0.98;;;;;;;10.75;100.00;100599.69;4992135;28;20389;-67
2021/11/08 00:13:23;;;;;;;3.13;1.20;;;;;;;10.79;100.00;100601.34;4991264;28;20038;-66
2021/11/08 00:20:48;;;;;;;6.40;1.02;;;;;;;10.85;100.00;100605.28;4992165;28;20035;-67
2021/11/08 00:23:14;;;;;;;1.88;0.90;;;;;;;10.89;100.00;100608.84;4989279;28;20042;-67
2021/11/08 00:25:42;;;;;;;2.13;0.82;;;;;;;10.93;100.00;100611.59;4992728;28;20038;-66
2021/11/08 00:28:11;;;;;;;6.05;0.80;;;;;;;10.86;100.00;100614.13;4993282;28;20507;-66
2021/11/08 00:30:38;;;;;;;3.72;1.30;;;;;;;10.86;100.00;100609.53;4990450;28;20041;-66
2021/11/08 00:33:08;;;;;;;1.30;0.82;;;;;;;10.88;100.00;100615.34;4991028;28;20018;-66
2021/11/08 00:35:35;;;;;;;1.23;0.60;;;;;;;10.88;100.00;100630.72;4994013;28;20041;-66
2021/11/08 00:38:01;;;;;;;3.08;0.90;;;;;;;10.85;100.00;100621.47;4993049;28;20038;-67
2021/11/08 00:40:26;;;;;;;1.70;0.90;;;;;;;10.85;100.00;100624.16;4989011;28;20069;-67
2021/11/08 00:42:53;;;;;;;2.65;1.30;;;;;;;10.77;100.00;100630.53;4978796;28;20056;-66
2021/11/08 00:45:20;;;;;;;1.38;0.68;;;;;;;10.79;100.00;100628.25;4992653;28;20044;-66
2021/11/08 00:47:46;;;;;;;1.15;0.75;;;;;;;10.77;100.00;100637.81;4992334;28;20114;-67
2021/11/08 00:50:12;;;;;;;0.88;0.70;;;;;;;10.78;100.00;100634.78;4988340;28;20479;-66
2021/11/08 00:52:38;;;;;;;1.70;0.85;;;;;;;10.72;100.00;100643.53;4990736;28;20496;-66
2021/11/08 00:55:04;;;;;;;2.50;1.10;;;;;;;10.74;100.00;100644.69;4991640;28;20057;-68
2021/11/08 00:57:33;;;;;;;2.20;0.80;;;;;;;10.80;100.00;100647.91;4992478;28;20062;-67
2021/11/08 01:00:00;;;;;;;2.17;0.60;;;;;;;10.75;100.00;100651.66;4987718;28;20026;-69
2021/11/08 01:02:28;;;;;;;3.00;0.90;;;;;;;10.73;100.00;100656.63;4991967;28;20031;-66
2021/11/08 01:04:56;;;;;;;1.17;0.70;;;;;;;10.65;100.00;100660.31;4989421;28;20033;-66
2021/11/08 01:07:22;;;;;;;1.27;0.90;;;;;;;10.75;100.00;100651.66;4992721;28;20655;-66
2021/11/08 01:09:48;;;;;;;2.22;1.15;;;;;;;10.75;100.00;100664.34;4987352;28;20126;-67
2021/11/08 01:12:14;;;;;;;3.08;1.08;;;;;;;10.82;100.00;100667.94;4988522;28;20567;-67
2021/11/08 01:14:41;;;;;;;2.53;0.90;;;;;;;10.83;100.00;100671.44;4985191;28;20066;-66
2021/11/08 01:17:07;;;;;;;4.78;1.85;;;;;;;10.79;100.00;100676.75;4985445;28;20030;-67
2021/11/08 01:19:34;;;;;;;1.80;1.13;;;;;;;10.86;100.00;100679.56;4991276;28;20034;-66
2021/11/08 01:22:18;;;;;;;1.95;0.90;;;;;;;10.77;100.00;100684.41;4991732;28;20076;-66
2021/11/08 01:24:54;;;;;;;7.20;1.02;;;;;;;10.86;100.00;100687.66;4991037;28;20038;-68
2021/11/08 01:27:38;;;;;;;5.15;1.58;;;;;;;10.82;100.00;100692.19;4986917;28;20039;-66
2021/11/08 01:30:19;;;;;;;1.15;0.70;;;;;;;10.82;100.00;100691.41;4991384;28;20031;-66
2021/11/08 01:33:06;;;;;;;4.38;1.15;;;;;;;10.86;100.00;100697.66;4967108;28;20041;-66
2021/11/08 01:35:40;;;;;;;4.60;1.27;;;;;;;10.82;100.00;100702.97;4971414;28;20063;-66
2021/11/08 01:38:36;;;;;;;5.63;1.15;;;;;;;10.83;100.00;100706.44;4986087;28;20042;-68
2021/11/08 01:40:53;;;;;;;1.55;0.95;;;;;;;10.85;100.00;100715.75;4990287;28;20557;-67
2021/11/08 01:43:20;;;;;;;3.78;0.77;;;;;;;10.81;100.00;100706.81;4990295;28;20042;-67
2021/11/08 01:45:46;;;;;;;2.58;0.77;;;;;;;10.82;100.00;100721.81;4991394;28;20038;-66
2021/11/08 01:48:12;;;;;;;5.47;0.80;;;;;;;10.81;100.00;100724.88;4991996;28;20108;-66
2021/11/08 01:50:39;;;;;;;2.35;0.55;;;;;;;10.76;100.00;100717.09;4987561;28;20034;-66
2021/11/08 01:53:05;;;;;;;4.28;0.80;;;;;;;10.82;100.00;100718.34;4991525;28;20089;-66
2021/11/08 01:55:32;;;;;;;0.60;0.60;;;;;;;10.79;100.00;100722.53;4992143;28;20042;-66
2021/11/08 01:57:58;;;;;;;0.75;0.70;;;;;;;10.84;100.00;100727.63;4973472;28;20045;-67
2021/11/08 02:00:24;;;;;;;1.42;0.52;;;;;;;10.82;100.00;100721.81;4987691;28;20489;-66
2021/11/08 02:02:50;;;;;;;1.38;0.70;;;;;;;10.85;100.00;100731.91;4990964;28;20046;-66
2021/11/08 02:05:16;;;;;;;2.75;1.33;;;;;;;10.89;100.00;100732.75;4991455;28;20057;-66
2021/11/08 02:07:42;;;;;;;5.10;0.80;;;;;;;10.79;100.00;100730.63;4991886;28;20048;-66
2021/11/08 02:10:10;;;;;;;1.02;0.93;;;;;;;10.76;100.00;100741.34;4985998;28;20464;-66
2021/11/08 02:12:36;;;;;;;3.20;0.43;;;;;;;10.71;100.00;100737.00;4972885;28;20043;-68
2021/11/08 02:15:06;;;;;;;1.55;0.80;;;;;;;10.78;100.00;100749.84;4985522;28;20046;-67
2021/11/08 02:17:33;;;;;;;6.05;0.68;;;;;;;10.80;100.00;100750.28;4973340;28;20057;-67
2021/11/08 02:20:11;;;;;;;3.63;0.63;;;;;;;10.76;100.00;100747.47;4989935;28;20035;-67
2021/11/08 02:22:37;;;;;;;7.80;1.27;;;;;;;10.78;100.00;100749.84;4977891;28;20042;-68
2021/11/08 02:25:03;;;;;;;1.20;0.65;;;;;;;10.81;100.00;100755.28;4988235;28;20049;-67
2021/11/08 02:27:29;;;;;;;4.45;1.05;;;;;;;10.72;100.00;100752.00;4991459;28;20524;-68
2021/11/08 02:29:55;;;;;;;0.80;0.43;;;;;;;10.81;100.00;100757.19;4990388;28;20030;-68
2021/11/08 02:32:20;;;;;;;4.20;1.02;;;;;;;10.78;100.00;100753.28;4979642;28;20415;-67
2021/11/08 02:34:46;;;;;;;4.75;0.95;;;;;;;10.68;100.00;100761.94;4979817;28;20034;-67
2021/11/08 02:37:12;;;;;;;0.82;0.55;;;;;;;10.61;100.00;100761.78;4987884;28;20066;-67
2021/11/08 02:39:39;;;;;;;1.38;0.77;;;;;;;10.64;100.00;100774.56;4972755;28;20030;-67
2021/11/08 02:42:05;;;;;;;2.80;0.55;;;;;;;10.71;100.00;100780.09;4983184;28;20049;-67
2021/11/08 02:44:31;;;;;;;1.63;1.00;;;;;;;10.78;100.00;100774.84;4990281;28;20654;-67
2021/11/08 02:46:57;;;;;;;8.25;0.93;;;;;;;10.72;100.00;100778.94;4988851;28;20493;-67
2021/11/08 02:49:30;;;;;;;1.02;0.70;;;;;;;10.73;100.00;100783.22;4986128;28;20048;-67
2021/11/08 02:52:18;;;;;;;2.40;1.00;;;;;;;10.75;100.00;100790.94;4981868;28;20133;-67
2021/11/08 02:54:47;;;;;;;6.65;0.80;;;;;;;10.76;100.00;100800.59;4987538;28;20040;-67
2021/11/08 02:57:13;;;;;;;2.25;0.98;;;;;;;10.80;100.00;100791.44;4982018;28;20030;-66
2021/11/08 02:59:39;;;;;;;2.45;0.77;;;;;;;10.74;100.00;100795.53;4988668;28;20464;-66
2021/11/08 03:02:08;;;;;;;1.70;0.90;;;;;;;10.69;100.00;100801.22;4988837;28;20061;-66
2021/11/08 03:04:40;;;;;;;5.13;0.82;;;;;;;10.75;100.00;100796.31;4988768;28;20466;-66
2021/11/08 03:07:05;;;;;;;2.03;0.82;;;;;;;10.72;100.00;100797.03;4987327;28;20509;-66
2021/11/08 03:09:37;;;;;;;0.95;0.65;;;;;;;10.74;100.00;100800.91;4990016;28;20030;-66
2021/11/08 03:12:14;;;;;;;2.33;0.98;;;;;;;10.70;100.00;100802.75;4987178;28;20038;-66
2021/11/08 03:17:36;;;;;;;6.32;0.70;;;;;;;10.71;100.00;100807.03;4983151;28;20045;-66
2021/11/08 03:20:06;;;;;;;1.63;1.33;;;;;;;10.79;100.00;100811.44;4992996;28;20073;-66
2021/11/08 03:22:33;;;;;;;2.30;0.65;;;;;;;10.68;100.00;100820.41;4989342;28;20388;-66
2021/11/08 03:30:14;;;;;;;3.15;0.50;;;;;;;10.59;100.00;100831.38;4984878;28;20400;-66
2021/11/08 03:32:39;;;;;;;3.78;0.63;;;;;;;10.57;100.00;100833.63;4990519;28;20041;-66
2021/11/08 03:35:07;;;;;;;1.13;0.40;;;;;;;10.57;100.00;100830.94;4989360;28;20496;-66
2021/11/08 03:37:38;;;;;;;0.57;0.50;;;;;;;10.48;100.00;100830.34;4989635;28;20049;-66
2021/11/08 03:40:18;;;;;;;2.22;0.60;;;;;;;10.49;100.00;100839.22;4986821;28;20034;-66
2021/11/08 03:42:45;;;;;;;2.63;0.60;;;;;;;10.54;100.00;100837.03;4986631;28;20034;-66
2021/11/08 03:45:10;;;;;;;1.30;0.70;;;;;;;10.56;100.00;100842.06;4989602;28;20038;-66
2021/11/08 03:47:37;;;;;;;4.88;0.68;;;;;;;10.42;100.00;100841.72;4988965;28;20034;-66
2021/11/08 03:50:08;;;;;;;0.90;0.30;;;;;;;10.39;100.00;100845.13;4987963;28;20042;-66
2021/11/08 03:52:34;;;;;;;0.63;0.40;;;;;;;10.35;100.00;100857.72;4988790;28;20118;-66
2021/11/08 03:55:01;;;;;;;2.83;1.25;;;;;;;10.43;100.00;100846.00;4989413;28;20057;-66
2021/11/08 03:57:27;;;;;;;0.82;0.47;;;;;;;10.51;100.00;100853.09;4987100;28;20030;-66
2021/11/08 03:59:53;;;;;;;0.98;0.50;;;;;;;10.46;100.00;100851.44;4985776;28;20366;-66
2021/11/08 04:02:20;;;;;;;1.17;0.47;;;;;;;10.48;100.00;100857.28;4985970;28;20496;-66
2021/11/08 04:04:46;;;;;;;1.08;0.82;;;;;;;10.55;100.00;100865.50;4983143;28;20034;-66
2021/11/08 04:07:11;;;;;;;1.48;0.77;;;;;;;10.53;100.00;100869.69;4989480;28;20062;-66
2021/11/08 04:09:39;;;;;;;1.45;0.68;;;;;;;10.55;100.00;100865.50;4986797;28;20106;-66
2021/11/08 04:12:05;;;;;;;2.08;1.05;;;;;;;10.58;100.00;100870.22;4985946;28;20113;-66
2021/11/08 04:14:30;;;;;;;3.90;0.98;;;;;;;10.63;100.00;100877.22;4987093;28;20034;-66
2021/11/08 04:16:56;;;;;;;0.70;0.43;;;;;;;10.52;100.00;100874.28;4986620;28;20242;-66
2021/11/08 04:19:27;;;;;;;0.80;0.57;;;;;;;10.56;100.00;100883.25;4988429;28;20048;-66
2021/11/08 04:21:53;;;;;;;3.75;0.70;;;;;;;10.55;100.00;100884.34;4986985;28;20096;-65
2021/11/08 04:24:19;;;;;;;1.08;0.65;;;;;;;10.51;100.00;100882.72;4986320;28;20030;-66
2021/11/08 04:26:44;;;;;;;2.25;0.77;;;;;;;10.53;100.00;100877.78;4988245;28;20043;-66
2021/11/08 04:29:10;;;;;;;1.23;1.05;;;;;;;10.46;100.00;100891.84;4988492;28;20106;-65
2021/11/08 04:31:38;;;;;;;2.10;0.80;;;;;;;10.39;100.00;100894.38;4977570;28;20583;-66
2021/11/08 04:39:32;;;;;;;4.57;0.90;;;;;;;10.48;100.00;100899.56;4984577;28;20116;-66
2021/11/08 04:42:07;;;;;;;1.75;0.85;;;;;;;10.45;100.00;100900.28;4988551;28;20410;-66
2021/11/08 04:50:01;;;;;;;1.85;1.15;;;;;;;10.46;100.00;100913.38;4972188;28;20030;-65
2021/11/08 04:58:27;;;;;;;3.22;1.08;;;;;;;10.42;100.00;100914.41;4974726;28;20066;-66
2021/11/08 05:30:36;;;;;;;2.17;0.57;;;;;;;10.46;100.00;100945.69;4990150;28;20038;-66
2021/11/08 05:33:02;;;;;;;3.00;0.63;;;;;;;10.35;100.00;100960.78;4991713;28;20034;-65
2021/11/08 05:35:29;;;;;;;6.72;0.68;;;;;;;10.32;100.00;100957.97;4991773;28;20088;-66
2021/11/08 05:37:56;;;;;;;2.97;0.80;;;;;;;10.28;100.00;100955.19;4988586;28;20037;-65
2021/11/08 05:40:42;;;;;;;2.05;0.60;;;;;;;10.31;100.00;100959.13;4989043;28;20062;-66
2021/11/08 05:43:08;;;;;;;2.08;0.55;;;;;;;10.31;100.00;100959.91;4982536;28;20033;-66
2021/11/08 05:45:35;;;;;;;0.40;0.40;;;;;;;10.42;100.00;100963.66;4991875;28;20057;-65
2021/11/08 05:48:04;;;;;;;2.75;0.52;;;;;;;10.38;100.00;100970.06;4989928;28;20153;-66
2021/11/08 05:50:31;;;;;;;3.38;1.10;;;;;;;10.37;100.00;100963.13;4989171;28;20045;-66
2021/11/08 05:52:57;;;;;;;1.55;0.68;;;;;;;10.33;100.00;100971.13;4987092;28;20034;-66
2021/11/08 05:55:51;;;;;;;1.35;0.60;;;;;;;10.29;100.00;100975.63;4986121;28;20048;-66
2021/11/08 06:50:10;;;;;;;1.20;0.35;;;;;;;10.10;100.00;101039.28;4989246;28;20046;-65
2021/11/08 06:52:37;;;;;;;0.98;0.47;;;;;;;10.16;100.00;101038.72;4990174;28;20037;-66
2021/11/08 06:55:05;;;;;;;3.47;0.63;;;;;;;10.15;100.00;101041.72;4990311;28;20038;-65
2021/11/08 06:58:00;;;;;;;3.67;0.70;;;;;;;10.11;100.00;101056.97;4991328;28;20397;-65
2021/11/08 07:00:25;;;;;;;2.07;0.50;;;;;;;10.07;100.00;101056.84;4985947;28;20121;-67
2021/11/08 07:02:50;;;;;;;1.10;0.38;;;;;;;10.10;100.00;101063.50;4989114;28;20672;-66
2021/11/08 07:05:16;;;;;;;3.47;0.60;;;;;;;10.15;100.00;101064.03;4981960;28;20045;-68
2021/11/08 07:07:41;;;;;;;3.35;0.68;;;;;;;10.16;100.00;101062.94;4977388;28;20026;-66
2021/11/08 07:10:07;;;;;;;3.80;0.85;;;;;;;10.12;100.00;101066.63;4999735;28;20042;-65
2021/11/08 07:12:33;;;;;;;4.43;0.68;;;;;;;10.20;100.00;101076.47;4969748;28;20112;-65
2021/11/08 07:14:59;;;;;;;3.50;1.80;;;;;;;10.20;100.00;101079.19;4988243;28;20133;-66
2021/11/08 07:17:25;;;;;;;5.55;0.60;;;;;;;10.19;100.00;101080.28;4992269;28;20035;-65
2021/11/08 07:19:50;;;;;;;1.88;1.27;;;;;;;10.29;100.00;101090.56;4994075;28;20038;-66
2021/11/08 07:22:16;;;;;;;3.30;0.43;;;;;;;10.30;100.00;101086.78;4991827;28;20056;-65
2021/11/08 07:24:41;;;;;;;6.13;0.85;;;;;;;10.35;100.00;101095.38;4999123;28;20040;-67
2021/11/08 07:27:07;;;;;;;0.20;0.20;;;;;;;10.32;100.00;101101.44;4992074;28;20165;-66
2021/11/08 07:29:36;;;;;;;3.50;0.82;;;;;;;10.27;100.00;101103.59;4987403;28;20046;-66
2021/11/08 07:32:03;;;;;;;1.25;0.60;;;;;;;10.16;100.00;101095.22;5000761;28;20031;-65
2021/11/08 07:34:29;;;;;;;2.92;1.10;;;;;;;10.25;100.00;101103.16;4985453;28;20030;-66
2021/11/08 07:36:54;;;;;;;3.83;0.70;;;;;;;10.40;100.00;101089.75;4997151;28;20044;-65
2021/11/08 07:39:20;;;;;;;1.60;0.47;;;;;;;10.34;100.00;101104.56;4973057;28;20042;-65
2021/11/08 07:41:46;;;;;;;2.08;0.43;;;;;;;10.38;100.00;101107.38;4994674;28;20054;-66
2021/11/08 07:44:13;;;;;;;3.13;0.40;;;;;;;10.36;100.00;101107.72;4988680;28;20690;-65
2021/11/08 07:46:38;;;;;;;0.50;0.40;;;;;;;10.34;100.00;101118.03;4991730;28;20090;-65
2021/11/08 07:49:04;;;;;;;3.95;1.00;;;;;;;10.44;100.00;101109.47;4990799;28;20370;-67
2021/11/08 07:51:30;;;;;;;5.13;0.73;;;;;;;10.39;100.00;101112.44;4986257;28;20045;-66
2021/11/08 07:53:55;;;;;;;1.30;0.47;;;;;;;10.37;100.00;101119.28;4991992;28;20482;-66
2021/11/08 07:56:21;;;;;;;1.23;0.55;;;;;;;10.39;100.00;101123.19;4995865;28;20033;-65
2021/11/08 07:58:48;;;;;;;3.33;0.60;;;;;;;10.47;100.00;101122.25;4994530;28;20515;-65
2021/11/08 08:01:13;;;;;;;8.57;0.40;;;;;;;10.54;100.00;101127.84;4988634;28;20049;-65
2021/11/08 08:03:39;;;;;;;2.90;0.45;;;;;;;10.60;100.00;101123.78;4997560;28;20113;-65
2021/11/08 08:06:06;;;;;;;1.17;1.05;;;;;;;10.71;100.00;101141.03;4993696;28;20038;-65
2021/11/08 08:08:32;;;;;;;7.15;1.55;;;;;;;10.89;100.00;101130.72;4989808;28;20416;-65
2021/11/08 08:10:58;;;;;;;6.22;0.80;;;;;;;10.91;100.00;101141.94;4993973;28;20026;-65
2021/11/08 08:13:27;;;;;;;1.33;0.57;;;;;;;10.97;100.00;101139.78;4995596;28;20076;-65
2021/11/08 08:15:59;;;;;;;1.67;0.73;;;;;;;10.94;100.00;101133.16;4989476;28;20042;-64
2021/11/08 08:18:28;;;;;;;;;;;;;;;10.99;100.00;101140.22;4993158;28;20030;-65
2021/11/08 08:20:58;;;;;;;0.30;0.30;;;;;;;11.16;100.00;101145.28;4993747;28;19984;-67
2021/11/08 08:23:23;;;;;;;3.38;0.43;;;;;;;11.27;100.00;101140.94;4994567;28;20026;-66
2021/11/08 08:25:49;;;;;;;2.47;0.50;;;;;;;11.33;100.00;101143.03;4999628;28;20549;-65
2021/11/08 08:28:15;;;;;;;4.25;1.13;;;;;;;11.36;100.00;101142.34;4991363;28;21885;-66
2021/11/08 08:30:40;;;;;;;2.08;0.80;;;;;;;11.51;100.00;101136.19;4996782;28;20033;-65
2021/11/08 08:33:06;;;;;;;2.33;0.70;;;;;;;11.54;100.00;101140.06;5006469;28;20045;-66
2021/11/08 08:35:39;;;;;;;1.05;0.60;;;;;;;11.56;100.00;101140.50;4995242;28;20030;-65
2021/11/08 08:38:06;;;;;;;4.72;0.80;;;;;;;11.53;100.00;101139.31;4993501;28;20030;-65
2021/11/08 08:40:31;;;;;;;1.77;0.90;;;;;;;11.58;100.00;101130.94;4995918;28;20041;-66
2021/11/08 08:42:57;;;;;;;1.00;0.40;;;;;;;11.70;100.00;101127.41;4994991;28;20400;-66
2021/11/08 08:45:22;;;;;;;1.95;0.60;;;;;;;11.70;100.00;101128.19;4991145;28;20556;-66
2021/11/08 08:47:48;;;;;;;5.35;0.90;;;;;;;11.80;100.00;101132.25;4994302;28;20049;-66
2021/11/08 08:50:13;;;;;;;2.55;1.00;;;;;;;11.93;100.00;101136.41;4999967;28;20041;-66
2021/11/08 08:52:40;;;;;;;1.85;0.45;;;;;;;11.98;100.00;101133.44;4996877;28;20029;-66
2021/11/08 08:55:07;;;;;;;3.42;0.40;;;;;;;11.98;100.00;101138.81;4991380;28;20025;-65
2021/11/08 08:57:32;;;;;;;4.03;0.95;;;;;;;12.01;100.00;101151.63;4996104;28;20445;-65
2021/11/08 08:59:58;;;;;;;4.47;0.75;;;;;;;12.09;99.17;101150.66;4995193;28;20032;-67
2021/11/08 09:02:24;;;;;;;4.28;0.50;;;;;;;12.08;98.85;101151.78;4987879;28;20667;-65
2021/11/08 09:04:49;;;;;;;0.45;0.30;;;;;;;11.97;99.42;101148.06;4991533;28;20053;-65
2021/11/08 09:07:17;;;;;;;2.22;0.32;;;;;;;11.87;99.93;101148.59;4988457;28;20030;-66
2021/11/08 09:09:43;;;;;;;2.85;0.60;;;;;;;11.79;100.00;101144.97;4991678;28;20165;-66
2021/11/08 09:12:09;;;;;;;1.10;0.30;;;;;;;11.75;100.00;101156.78;4990269;28;20471;-65
2021/11/08 09:14:38;;;;;;;1.95;0.40;;;;;;;11.68;100.00;101159.34;4994092;28;20034;-66
2021/11/08 09:17:03;;;;;;;1.02;0.30;;;;;;;11.58;100.00;101154.44;4987874;28;20513;-65
2021/11/08 09:19:29;;;;;;;0.93;0.55;;;;;;;11.53;100.00;101162.78;4983712;28;20128;-66
2021/11/08 09:21:54;;;;;;;2.60;0.35;;;;;;;11.53;100.00;101170.88;4981546;28;20030;-66
2021/11/08 09:24:22;;;;;;;5.07;0.50;;;;;;;11.61;100.00;101168.00;4994040;28;20044;-65
2021/11/08 09:26:49;;;;;;;0.80;0.52;;;;;;;11.64;100.00;101171.91;4992207;28;20038;-66
2021/11/08 09:29:16;;;;;;;3.58;1.38;;;;;;;11.68;100.00;101173.63;4982382;28;20552;-66
2021/11/08 09:31:44;;;;;;;4.50;0.45;;;;;;;11.62;100.00;101180.38;4991195;28;20039;-66
2021/11/08 09:34:10;;;;;;;1.30;0.47;;;;;;;11.70;100.00;101181.34;4994275;28;20042;-66
2021/11/08 09:36:39;;;;;;;0.52;0.45;;;;;;;11.77;99.46;101176.13;4991481;28;20487;-66
2021/11/08 09:39:13;;;;;;;0.47;0.20;;;;;;;11.81;99.40;101170.81;4992722;28;20030;-66
2021/11/08 09:41:40;;;;;;;1.35;0.50;;;;;;;11.88;99.10;101179.88;4968673;28;20045;-66
2021/11/08 09:44:08;;;;;;;0.40;0.40;;;;;;;12.02;99.72;101182.13;4992078;28;20115;-66
2021/11/08 09:46:35;;;;;;;0.28;0.28;;;;;;;12.10;99.77;101179.22;4984675;28;20045;-66
2021/11/08 09:49:04;;;;;;;1.90;0.43;;;;;;;12.16;100.00;101187.81;4991097;28;20061;-65
2021/11/08 09:51:35;;;;;;;3.30;0.57;;;;;;;12.25;99.66;101186.47;4989718;28;20130;-65
2021/11/08 09:54:01;;;;;;;0.47;0.10;;;;;;;12.47;98.30;101191.22;4976645;28;20509;-66
2021/11/08 09:56:27;;;;;;;0.40;0.30;;;;;;;12.47;97.70;101185.03;4992522;28;20042;-66
2021/11/08 09:58:58;;;;;;;2.33;0.20;;;;;;;12.54;97.19;101196.00;4992733;28;20038;-66
2021/11/08 10:01:24;;;;;;;1.52;0.28;;;;;;;12.51;97.64;101199.41;4991724;28;20041;-66
2021/11/08 10:03:50;;;;;;;1.27;0.30;;;;;;;12.54;97.17;101194.06;4991985;28;20552;-67
2021/11/08 10:06:18;;;;;;;1.15;0.50;;;;;;;12.60;96.43;101191.88;4973231;28;20038;-66
2021/11/08 10:08:44;;;;;;;1.08;0.60;;;;;;;12.69;95.63;101201.34;4991515;28;20037;-66
2021/11/08 10:11:12;;;;;;;0.55;0.30;;;;;;;12.72;96.07;101201.78;4992530;28;20037;-67
2021/11/08 10:13:39;;;;;;;1.45;0.47;;;;;;;12.74;95.68;101208.38;4989244;28;20033;-66
2021/11/08 10:16:09;;;;;;;2.00;0.50;;;;;;;12.73;94.75;101195.22;4993089;28;20057;-67
2021/11/08 10:18:36;;;;;;;1.55;0.47;;;;;;;12.70;95.17;101205.59;4988730;28;20050;-66
2021/11/08 10:21:04;;;;;;;0.93;0.50;;;;;;;12.66;95.32;101210.16;4987733;28;20184;-67
2021/11/08 10:23:30;;;;;;;2.63;0.60;;;;;;;12.64;95.44;101207.03;4992634;28;20092;-66
2021/11/08 10:25:55;;;;;;;2.53;0.65;;;;;;;12.62;95.10;101209.28;4994572;28;20038;-66
2021/11/08 10:28:25;;;;;;;0.90;0.38;;;;;;;12.49;95.89;101207.88;4990981;28;20041;-66
2021/11/08 10:31:01;;;;;;;2.70;0.20;;;;;;;12.49;96.71;101196.28;4968747;28;20038;-66
2021/11/08 10:33:31;;;;;;;0.55;0.35;;;;;;;12.47;97.60;101207.44;4991539;28;20038;-66
2021/11/08 10:36:03;;;;;;;0.40;0.30;;;;;;;12.48;97.45;101206.31;4971082;28;20153;-66
2021/11/08 10:38:31;;;;;;;1.40;0.38;;;;;;;12.50;98.63;101208.66;4991031;28;20026;-66
2021/11/08 10:40:58;;;;;;;4.03;1.50;;;;;;;12.32;99.95;101213.66;4985898;28;20034;-65
2021/11/08 10:43:35;;;;;;;3.15;0.50;;;;;;;12.32;100.00;101208.25;4988608;28;20034;-66
2021/11/08 10:46:07;;;;;;;0.90;0.43;;;;;;;12.15;100.00;101216.75;4990829;28;20029;-65
2021/11/08 10:48:40;;;;;;;4.05;0.60;;;;;;;12.15;100.00;101213.25;4991248;28;20105;-65
2021/11/08 10:51:11;;;;;;;0.80;0.20;;;;;;;12.12;100.00;101214.75;4994535;28;20033;-66
2021/11/08 10:53:55;;;;;;;0.30;0.30;;;;;;;12.07;100.00;101222.31;4985065;28;20048;-66
2021/11/08 10:56:28;;;;;;;2.05;0.68;;;;;;;12.00;100.00;101217.53;4996109;28;20500;-65
2021/11/08 10:58:56;;;;;;;2.85;0.77;;;;;;;12.03;100.00;101206.06;4988571;28;20042;-66
2021/11/08 11:01:26;;;;;;;1.15;0.82;;;;;;;11.98;100.00;101200.91;4990159;28;20548;-65
2021/11/08 11:03:57;;;;;;;0.50;0.50;;;;;;;12.00;100.00;101201.34;4992498;28;20045;-65
2021/11/08 11:06:54;;;;;;;4.38;0.80;;;;;;;11.89;100.00;101200.31;4990696;28;20045;-66
2021/11/08 11:09:24;;;;;;;2.05;1.10;;;;;;;11.90;100.00;101203.81;4987173;28;20497;-65
2021/11/08 11:12:03;;;;;;;1.25;0.63;;;;;;;11.88;100.00;101204.16;4988897;28;20034;-66
2021/11/08 11:15:03;;;;;;;2.05;0.73;;;;;;;11.88;100.00;101208.75;4989082;28;20038;-66
2021/11/08 11:17:37;;;;;;;4.60;1.13;;;;;;;11.87;100.00;101207.97;4981227;28;20054;-66
2021/11/08 11:20:03;;;;;;;2.05;1.20;;;;;;;11.78;100.00;101197.38;4973460;28;20066;-65
2021/11/08 11:22:28;;;;;;;3.63;1.10;;;;;;;11.88;100.00;101204.16;4986059;28;20557;-66
2021/11/08 11:24:55;;;;;;;5.57;0.98;;;;;;;11.82;100.00;101191.28;4987690;28;20113;-67
2021/11/08 11:27:24;;;;;;;4.82;1.20;;;;;;;11.90;100.00;101191.09;4982970;28;20046;-66
2021/11/08 11:29:50;;;;;;;1.65;1.15;;;;;;;11.80;100.00;101197.03;4987598;28;20424;-65
2021/11/08 11:32:19;;;;;;;5.82;1.80;;;;;;;11.78;100.00;101193.88;4995763;28;20045;-65
2021/11/08 11:34:46;;;;;;;4.55;1.05;;;;;;;11.64;100.00;101193.50;4989765;28;20404;-67
2021/11/08 11:37:17;;;;;;;3.03;1.40;;;;;;;11.72;100.00;101206.06;4972706;28;20036;-65
2021/11/08 11:39:43;;;;;;;1.88;1.35;;;;;;;11.71;100.00;101199.88;4984799;28;20130;-66
2021/11/08 11:42:09;;;;;;;3.95;1.35;;;;;;;11.69;100.00;101196.75;4995672;28;20268;-67
2021/11/08 11:44:35;;;;;;;3.88;1.20;;;;;;;11.74;100.00;101191.09;4992364;28;20038;-65
2021/11/08 11:47:01;;;;;;;1.73;0.90;;;;;;;11.72;100.00;101187.97;4989859;28;20041;-65
2021/11/08 11:49:27;;;;;;;1.75;1.40;;;;;;;11.63;100.00;101194.66;4988294;28;20050;-65
2021/11/08 11:51:56;;;;;;;2.72;1.60;;;;;;;11.67;100.00;101188.22;4987688;28;20069;-65
2021/11/08 11:54:25;;;;;;;2.25;1.48;;;;;;;11.65;100.00;101179.69;4998491;28;20038;-65
2021/11/08 11:56:52;;;;;;;4.32;1.75;;;;;;;11.69;100.00;101185.97;4996879;28;20049;-66
2021/11/08 11:59:19;;;;;;;7.75;1.90;;;;;;;11.69;100.00;101177.09;4992435;28;20038;-65
2021/11/08 12:01:45;;;;;;;2.72;1.48;;;;;;;11.74;100.00;101187.63;4992052;28;20132;-66
2021/11/08 12:04:13;;;;;;;3.13;1.50;;;;;;;11.67;100.00;101171.28;4993026;28;20027;-65
2021/11/08 12:06:43;;;;;;;6.55;1.83;;;;;;;11.72;100.00;101176.41;4992400;28;20527;-65
2021/11/08 12:09:12;;;;;;;2.67;1.50;;;;;;;11.71;100.00;101180.25;4994563;28;20042;-65
2021/11/08 12:11:45;;;;;;;3.92;1.02;;;;;;;11.76;100.00;101186.16;4995134;28;20506;-65
2021/11/08 12:14:22;;;;;;;2.50;1.35;;;;;;;11.68;100.00;101189.00;4985033;28;20061;-66
2021/11/08 12:16:53;;;;;;;4.45;1.88;;;;;;;11.66;100.00;101185.88;4993596;28;20062;-65
2021/11/08 12:19:20;;;;;;;1.70;1.60;;;;;;;11.62;100.00;101187.66;4987851;28;20054;-66
2021/11/08 12:21:47;;;;;;;2.67;1.40;;;;;;;11.51;100.00;101192.81;4985892;28;20308;-71
2021/11/08 12:24:18;;;;;;;2.15;1.45;;;;;;;11.56;100.00;101183.66;4980563;28;20077;-65
2021/11/08 12:26:44;;;;;;;2.13;1.50;;;;;;;11.65;100.00;101189.69;4985591;28;20169;-64
2021/11/08 12:29:13;;;;;;;3.85;2.28;;;;;;;11.63;100.00;101186.56;4992448;28;20289;-65
2021/11/08 12:31:39;;;;;;;2.67;1.42;;;;;;;11.63;100.00;101195.41;4991345;28;20121;-66
2021/11/08 12:34:09;;;;;;;4.95;1.48;;;;;;;11.56;100.00;101184.47;4988873;28;20682;-65
2021/11/08 12:36:36;;;;;;;1.35;1.20;;;;;;;11.57;100.00;101188.75;4989871;28;20048;-65
2021/11/08 12:39:09;;;;;;;5.25;1.40;;;;;;;11.63;100.00;101181.16;4992390;28;20081;-65
2021/11/08 12:41:47;;;;;;;5.18;1.38;;;;;;;11.69;100.00;101182.50;4983512;28;20054;-65
2021/11/08 12:44:16;;;;;;;2.38;1.70;;;;;;;11.66;100.00;101177.78;4974597;28;20136;-65
2021/11/08 12:46:49;;;;;;;5.15;1.42;;;;;;;11.62;100.00;101185.75;4989723;28;20026;-65
2021/11/08 12:49:16;;;;;;;5.43;1.60;;;;;;;11.55;100.00;101188.28;4989174;28;20038;-65
2021/11/08 12:51:57;;;;;;;3.30;1.77;;;;;;;11.54;100.00;101189.41;4978052;28;20165;-65
2021/11/08 12:54:24;;;;;;;;;;;;;;;11.51;100.00;101190.13;4989907;28;20181;-66
2021/11/08 12:56:51;;;;;;;4.78;1.30;;;;;;;11.59;100.00;101193.78;4978943;28;19917;-65
2021/11/08 12:59:20;;;;;;;1.10;0.85;;;;;;;11.56;100.00;101195.25;4983985;28;20034;-66
2021/11/08 13:02:09;;;;;;;2.45;1.42;;;;;;;11.57;100.00;101209.53;4977851;28;20125;-66
2021/11/08 13:04:49;;;;;;;1.65;1.30;;;;;;;11.63;100.00;101200.81;4990857;28;20063;-65
2021/11/08 13:07:17;;;;;;;2.15;1.42;;;;;;;11.55;100.00;101201.00;4981230;28;20058;-65
2021/11/08 13:09:56;;;;;;;3.03;1.70;;;;;;;11.56;100.00;101202.53;4981659;28;20105;-66
2021/11/08 13:12:36;;;;;;;1.80;0.95;;;;;;;11.60;100.00;101212.31;4987729;28;20105;-65
2021/11/08 13:15:12;;;;;;;3.13;1.52;;;;;;;11.57;100.00;101214.91;4984661;28;20129;-66
2021/11/08 13:17:51;;;;;;;3.03;1.40;;;;;;;11.60;100.00;101214.22;4988693;28;20049;-64